Terminal Aerodrome Forecast
Issued by NWS

Home | Current Version | Previous Version | Text Only | Print | Product List | Glossary On
Versions: 1 2 3 4 5 6 7 8 9 10 11 12 13 14 15 16 17 18 19 20 21 22 23
000
FTUS43 KGRR 191500 AAB
TAFBTL
TAF AMD
KBTL 191508Z 1915/2012 02004KT P6SM BKN009 OVC015
     FM191700 36005KT P6SM SCT015
     FM200600 18002KT 5SM BR BKN015=

USA.gov is the U.S. government's official web portal to all federal, state and local government web resources and services.